Maldives Meteorological Service

TAFS

Station TAF
VRMM
VRMM 272300Z 2800/2906 27018KT 9999 FEW017TCU TEMPO 2800/2806 28020G35KT 4000 SHRA FEW017CB BKN110=
VRMH
VRMH 272300Z 2800/2824 25015KT 9999 FEW017TCU BKN120 TEMPO 2800/2806 32018G33KT 3000 TSRA SCT016 FEW017CB BKN100=
VRMK
VRMK 272300Z 2800/2824 23013KT 9999 FEW017 SCT120 TEMPO 2800/2806 25015G28KT 3000 TSRA SCT016 FEW017CB BKN100=
VRMT
VRMT 272300Z 2800/2824 27012KT 9999 FEW018 TEMPO 2800/2806 5000 -TSRA FEW017CB=
VRMG
VRMG 272300Z 2800/2906 27014KT 9999 FEW018 TEMPO 2800/2806 5000 -TSRA FEW017CB=